Fedora — SLKU — position and weather

sailwx.info

Track history (hours):
 
Tides and Currents Weather Stations Pressure Air Temp Water Temp Dewpoint Dewpoint Depression Visibility Wind Speed Wind Dir Waves Ship Positions

Fedora

Last reported at 2016-Jun-30 10:29 UTC. Time now 2016-Jul-01 20:49 UTC.
Position S 36°12' E 174°56'.

Length 228 m; draft 9.3 m.

Type: Cargo ship. MMSI: 266259000.

Date/timePositionNaut miles runAvg speedWind from/ knotsBaromVisibWave heightAir tempDewpointWater temp
2016-Jun-30 10:29S 36°12' E 174°56'1111.6
2016-Jun-30 09:33S 36°22' E 175°00'1110.6
2016-Jun-30 08:33S 36°33' E 175°01'9 9.5
2016-Jun-30 07:33S 36°40' E 174°54'9 9.3
2016-Jun-30 06:33S 36°49' E 174°50'3 3.0
2016-Jun-30 05:29S 36°50' E 174°46'0 0.0
2016-Jun-30 04:29S 36°50' E 174°46'0 0.0
2016-Jun-30 03:29S 36°50' E 174°46'0 0.0
2016-Jun-30 02:29S 36°50' E 174°46'0 0.0
2016-Jun-30 01:29S 36°50' E 174°46'0 0.0
2016-Jun-30 00:29S 36°50' E 174°46'0 0.0
2016-Jun-29 23:23S 36°50' E 174°46'0 0.0
2016-Jun-29 22:29S 36°50' E 174°46'0 0.0
2016-Jun-29 21:29S 36°50' E 174°46'0 0.0
2016-Jun-29 20:29S 36°50' E 174°46'0 0.0
2016-Jun-29 19:29S 36°50' E 174°46'0 0.2
2016-Jun-29 18:34S 36°50' E 174°47'3 3.1
2016-Jun-29 17:34S 36°48' E 174°49'8 7.6
2016-Jun-29 16:34S 36°41' E 174°53'1110.5
2016-Jun-29 15:34S 36°33' E 175°02'1110.6
2016-Jun-29 14:33S 36°26' E 175°12'1010.1
2016-Jun-29 13:34S 36°22' E 175°23'1212.3
2016-Jun-29 12:33S 36°27' E 175°38'1313.2
2016-Jun-29 11:33S 36°28' E 175°54'  
Track history (hours):
 
Tides and Currents Weather Stations Pressure Air Temp Water Temp Dewpoint Dewpoint Depression Visibility Wind Speed Wind Dir Waves Ship Positions

Fedora

Last reported at 2016-Jun-30 10:29 UTC. Time now 2016-Jul-01 20:49 UTC.
Position S 36°12' E 174°56'.

Length 228 m; draft 9.3 m.

Type: Cargo ship. MMSI: 266259000.

Date/timePositionNaut miles runAvg speedWind from/ knotsBaromVisibWave heightAir tempDewpointWater temp
2016-Jun-30 10:29S 36°12' E 174°56'1111.6
2016-Jun-30 09:33S 36°22' E 175°00'1110.6
2016-Jun-30 08:33S 36°33' E 175°01'9 9.5
2016-Jun-30 07:33S 36°40' E 174°54'9 9.3
2016-Jun-30 06:33S 36°49' E 174°50'3 3.0
2016-Jun-30 05:29S 36°50' E 174°46'0 0.0
2016-Jun-30 04:29S 36°50' E 174°46'0 0.0
2016-Jun-30 03:29S 36°50' E 174°46'0 0.0
2016-Jun-30 02:29S 36°50' E 174°46'0 0.0
2016-Jun-30 01:29S 36°50' E 174°46'0 0.0
2016-Jun-30 00:29S 36°50' E 174°46'0 0.0
2016-Jun-29 23:23S 36°50' E 174°46'0 0.0
2016-Jun-29 22:29S 36°50' E 174°46'0 0.0
2016-Jun-29 21:29S 36°50' E 174°46'0 0.0
2016-Jun-29 20:29S 36°50' E 174°46'0 0.0
2016-Jun-29 19:29S 36°50' E 174°46'0 0.2
2016-Jun-29 18:34S 36°50' E 174°47'3 3.1
2016-Jun-29 17:34S 36°48' E 174°49'8 7.6
2016-Jun-29 16:34S 36°41' E 174°53'1110.5
2016-Jun-29 15:34S 36°33' E 175°02'1110.6
2016-Jun-29 14:33S 36°26' E 175°12'1010.1
2016-Jun-29 13:34S 36°22' E 175°23'1212.3
2016-Jun-29 12:33S 36°27' E 175°38'1313.2
2016-Jun-29 11:33S 36°28' E 175°54'  

Dump ship's entire track history